createdAt,value
2018-04-08T00:02:04.424Z,95957.91
2018-04-08T00:04:31.938Z,95965.36
2018-04-08T00:06:59.484Z,95969.50
2018-04-08T00:09:26.994Z,95969.00
2018-04-08T00:11:54.509Z,95972.89
2018-04-08T00:14:22.018Z,95970.97
2018-04-08T00:16:49.570Z,95970.83
2018-04-08T00:19:17.081Z,95978.38
2018-04-08T00:21:44.609Z,95971.77
2018-04-08T00:24:12.132Z,95967.88
2018-04-08T00:26:39.629Z,95971.22
2018-04-08T00:29:07.134Z,95978.67
2018-04-08T00:31:34.677Z,95974.39
2018-04-08T00:34:02.186Z,95977.63
2018-04-08T00:36:29.737Z,95974.55
2018-04-08T00:38:57.244Z,95975.98
2018-04-08T00:41:24.745Z,95978.95
2018-04-08T00:43:52.253Z,95982.66
2018-04-08T00:46:19.767Z,95977.59
2018-04-08T00:48:47.329Z,95975.21
2018-04-08T00:51:14.832Z,95976.80
2018-04-08T00:53:42.345Z,95979.27
2018-04-08T00:56:09.857Z,95979.09
2018-04-08T00:58:37.369Z,95978.77
2018-04-08T01:01:05.058Z,95989.50
2018-04-08T01:03:32.594Z,95985.94
2018-04-08T01:06:00.144Z,95982.34
2018-04-08T01:08:27.653Z,95979.41
2018-04-08T01:10:55.161Z,95976.08
2018-04-08T01:13:22.672Z,95973.23
2018-04-08T01:15:50.230Z,95974.02
2018-04-08T01:18:17.749Z,95974.80
2018-04-08T01:20:45.265Z,95973.52
2018-04-08T01:23:12.777Z,95969.63
2018-04-08T01:25:40.327Z,95973.34
2018-04-08T01:28:07.845Z,95969.63
2018-04-08T01:30:35.400Z,95971.22
2018-04-08T01:33:02.952Z,95969.65
2018-04-08T01:35:30.461Z,95961.52
2018-04-08T01:37:57.978Z,95961.60
2018-04-08T01:40:25.536Z,95962.88
2018-04-08T01:42:53.046Z,95963.09
2018-04-08T01:45:20.556Z,95960.83
2018-04-08T01:47:48.073Z,95959.39
2018-04-08T01:50:15.585Z,95966.34
2018-04-08T01:52:43.171Z,95967.03
2018-04-08T01:55:10.690Z,95967.88
2018-04-08T01:57:38.197Z,95965.94
2018-04-08T02:00:05.749Z,95970.28
2018-04-08T02:02:33.245Z,95970.02
2018-04-08T02:05:00.748Z,95969.87
2018-04-08T02:07:28.260Z,95970.98
2018-04-08T02:09:55.816Z,95967.46
2018-04-08T02:12:23.320Z,95948.98
2018-04-08T02:14:50.817Z,95963.97
2018-04-08T02:17:18.600Z,95965.34
2018-04-08T02:19:46.106Z,95964.08
2018-04-08T02:22:13.612Z,95965.95
2018-04-08T02:24:41.158Z,95956.30
2018-04-08T02:27:08.673Z,95955.54
2018-04-08T02:29:36.184Z,95956.88
2018-04-08T02:32:03.721Z,95953.08
2018-04-08T02:34:31.265Z,95952.14
2018-04-08T02:36:58.769Z,95957.34
2018-04-08T02:39:26.321Z,95957.48
2018-04-08T02:41:53.847Z,95952.30
2018-04-08T02:44:21.392Z,95951.27
2018-04-08T02:46:48.937Z,95954.23
2018-04-08T02:49:16.441Z,95954.43
2018-04-08T02:51:43.984Z,95955.66
2018-04-08T02:54:11.498Z,95955.66
2018-04-08T02:56:39.041Z,95955.00
2018-04-08T02:59:06.541Z,95952.25
2018-04-08T03:01:34.092Z,95958.75
2018-04-08T03:04:01.629Z,95951.42
2018-04-08T03:06:29.142Z,95960.91
2018-04-08T03:08:56.653Z,95958.73
2018-04-08T03:11:24.164Z,95950.55
2018-04-08T03:13:51.669Z,95946.84
2018-04-08T03:16:19.185Z,95950.31
2018-04-08T03:18:46.695Z,95955.02
2018-04-08T03:21:14.202Z,95961.03
2018-04-08T03:23:41.716Z,95958.39
2018-04-08T03:26:09.222Z,95969.86
2018-04-08T03:28:36.728Z,95958.31
2018-04-08T03:31:04.261Z,95964.02
2018-04-08T03:33:31.777Z,95966.33
2018-04-08T03:35:59.282Z,95961.23
2018-04-08T03:38:26.793Z,95969.73
2018-04-08T03:40:54.310Z,95967.03
2018-04-08T03:43:21.828Z,95970.67
2018-04-08T03:45:49.370Z,95968.19
2018-04-08T03:48:16.881Z,95969.27
2018-04-08T03:50:44.390Z,95963.86
2018-04-08T03:53:11.930Z,95969.50
2018-04-08T03:55:39.428Z,95971.87
2018-04-08T03:58:06.977Z,95973.94
2018-04-08T04:00:34.497Z,95976.16
2018-04-08T04:03:02.003Z,95978.70
2018-04-08T04:05:29.521Z,95973.27
2018-04-08T04:07:57.069Z,95978.18
2018-04-08T04:10:24.575Z,95987.89
2018-04-08T04:12:52.111Z,95981.36
2018-04-08T04:15:19.647Z,95985.94
2018-04-08T04:17:47.160Z,95997.09
2018-04-08T04:20:26.412Z,95999.63
2018-04-08T04:23:05.776Z,95997.22
2018-04-08T04:28:39.228Z,95994.17
2018-04-08T04:31:06.785Z,95994.77
2018-04-08T04:33:34.292Z,95992.10
2018-04-08T04:36:01.796Z,95998.23
2018-04-08T04:38:29.352Z,95996.92
2018-04-08T04:40:56.863Z,95992.53
2018-04-08T04:43:24.423Z,95994.16
2018-04-08T04:45:51.972Z,95997.50
2018-04-08T04:48:19.517Z,95993.25
2018-04-08T04:50:47.020Z,95994.00
2018-04-08T04:53:14.569Z,95992.00
2018-04-08T04:55:42.079Z,95998.96
2018-04-08T04:58:09.584Z,95995.06
2018-04-08T05:00:37.136Z,95996.50
2018-04-08T05:03:04.640Z,96002.48
2018-04-08T05:05:32.188Z,96006.13
2018-04-08T05:07:59.702Z,96000.66
2018-04-08T05:10:27.249Z,96007.55
2018-04-08T05:12:54.762Z,96008.31
2018-04-08T05:15:22.304Z,96003.16
2018-04-08T05:17:49.813Z,96007.16
2018-04-08T05:20:17.364Z,96011.88
2018-04-08T05:22:44.864Z,96011.36
2018-04-08T05:25:12.382Z,96015.70
2018-04-08T05:27:39.900Z,96014.07
2018-04-08T05:30:07.440Z,96011.75
2018-04-08T05:32:34.952Z,96011.47
2018-04-08T05:35:02.462Z,96008.36
2018-04-08T05:37:29.982Z,95999.70
2018-04-08T05:39:57.488Z,96018.97
2018-04-08T05:42:25.040Z,96016.98
2018-04-08T05:44:52.584Z,96026.62
2018-04-08T05:47:21.033Z,96021.08
2018-04-08T05:49:48.552Z,96020.41
2018-04-08T05:52:16.065Z,96019.71
2018-04-08T05:54:43.569Z,96006.38
2018-04-08T05:57:11.078Z,96024.20
2018-04-08T05:59:38.621Z,96027.97
2018-04-08T06:02:06.165Z,96023.84
2018-04-08T06:04:33.678Z,96022.28
2018-04-08T06:07:01.215Z,96020.69
2018-04-08T06:09:28.727Z,96021.44
2018-04-08T06:11:56.281Z,96022.36
2018-04-08T06:14:23.789Z,96026.52
2018-04-08T06:16:52.217Z,96024.21
2018-04-08T06:19:19.738Z,96030.12
2018-04-08T06:21:47.287Z,96036.06
2018-04-08T06:24:14.806Z,96027.06
2018-04-08T06:26:42.314Z,96031.16
2018-04-08T06:29:09.817Z,96036.94
2018-04-08T06:31:37.377Z,96040.70
2018-04-08T06:34:04.896Z,96034.51
2018-04-08T06:36:32.413Z,96028.23
2018-04-08T06:38:59.969Z,96025.56
2018-04-08T06:41:27.480Z,96026.33
2018-04-08T06:43:54.995Z,96031.36
2018-04-08T06:46:22.642Z,96031.53
2018-04-08T06:48:50.154Z,96026.65
2018-04-08T06:51:17.733Z,96028.45
2018-04-08T06:53:45.263Z,96025.17
2018-04-08T06:56:12.816Z,96039.02
2018-04-08T06:58:40.331Z,96034.20
2018-04-08T07:01:07.898Z,96031.91
2018-04-08T07:03:35.421Z,96033.70
2018-04-08T07:06:02.971Z,96024.32
2018-04-08T07:08:30.576Z,96030.73
2018-04-08T07:10:58.092Z,96032.48
2018-04-08T07:13:25.670Z,96031.94
2018-04-08T07:15:53.230Z,96032.89
2018-04-08T07:18:20.808Z,96023.67
2018-04-08T07:20:48.312Z,96020.31
2018-04-08T07:23:15.825Z,96025.89
2018-04-08T07:25:43.372Z,96028.02
2018-04-08T07:28:10.887Z,96032.11
2018-04-08T07:30:38.457Z,96033.00
2018-04-08T07:33:05.961Z,96036.19
2018-04-08T07:35:33.487Z,96032.50
2018-04-08T07:38:01.039Z,96017.72
2018-04-08T07:40:28.528Z,96025.02
2018-04-08T07:42:56.037Z,96025.95
2018-04-08T07:45:23.593Z,96022.58
2018-04-08T07:47:51.121Z,96022.05
2018-04-08T07:50:18.653Z,96013.63
2018-04-08T07:52:46.198Z,96002.62
2018-04-08T07:55:13.712Z,96007.98
2018-04-08T07:57:41.226Z,96009.86
2018-04-08T08:00:08.782Z,96003.73
2018-04-08T08:02:36.285Z,96006.87
2018-04-08T08:05:03.839Z,96001.63
2018-04-08T08:07:31.357Z,96007.71
2018-04-08T08:09:58.873Z,95987.11
2018-04-08T08:12:26.429Z,95995.84
2018-04-08T08:14:53.936Z,95995.05
2018-04-08T08:17:21.481Z,95988.49
2018-04-08T08:19:48.997Z,95998.81
2018-04-08T08:22:16.521Z,95997.48
2018-04-08T08:24:44.076Z,95994.55
2018-04-08T08:27:11.632Z,95995.02
2018-04-08T08:29:39.197Z,95993.39
2018-04-08T08:32:06.704Z,95996.74
2018-04-08T08:34:34.281Z,95977.39
2018-04-08T08:37:01.795Z,95988.83
2018-04-08T08:39:29.330Z,95979.20
2018-04-08T08:41:56.881Z,95973.53
2018-04-08T08:44:24.392Z,95970.71
2018-04-08T08:46:51.913Z,95978.80
2018-04-08T08:49:19.434Z,95971.53
2018-04-08T08:51:46.943Z,95978.91
2018-04-08T08:54:14.496Z,95979.00
2018-04-08T08:56:42.011Z,95954.16
2018-04-08T08:59:09.555Z,95964.09
2018-04-08T09:01:37.101Z,95960.63
2018-04-08T09:04:04.671Z,95954.73
2018-04-08T09:06:32.219Z,95957.89
2018-04-08T09:08:59.745Z,95947.00
2018-04-08T09:11:27.297Z,95948.48
2018-04-08T09:13:54.793Z,95946.44
2018-04-08T09:16:22.300Z,95939.02
2018-04-08T09:18:52.640Z,95933.58
2018-04-08T09:21:31.853Z,95943.31
2018-04-08T09:24:04.297Z,95937.95
2018-04-08T09:26:31.841Z,95930.28
2018-04-08T09:28:59.388Z,95930.25
2018-04-08T09:31:26.894Z,95919.66
2018-04-08T09:33:54.412Z,95924.61
2018-04-08T09:36:21.976Z,95918.36
2018-04-08T09:38:49.482Z,95918.55
2018-04-08T09:41:16.985Z,95911.30
2018-04-08T09:43:45.236Z,95907.56
2018-04-08T09:46:12.745Z,95908.97
2018-04-08T09:48:40.245Z,95904.70
2018-04-08T09:51:07.748Z,95906.73
2018-04-08T09:53:35.253Z,95900.86
2018-04-08T09:56:02.767Z,95889.03
2018-04-08T09:58:30.315Z,95890.28
2018-04-08T10:04:00.976Z,95891.11
2018-04-08T10:06:28.524Z,95886.30
2018-04-08T10:08:56.033Z,95875.79
2018-04-08T10:11:23.577Z,95868.80
2018-04-08T10:13:51.080Z,95877.97
2018-04-08T10:16:18.594Z,95869.73
2018-04-08T10:18:46.148Z,95867.28
2018-04-08T10:21:13.663Z,95868.36
2018-04-08T10:23:41.243Z,95861.74
2018-04-08T10:26:08.754Z,95850.95
2018-04-08T10:28:36.265Z,95864.20
2018-04-08T10:31:03.852Z,95880.09
2018-04-08T10:33:31.430Z,95860.30
2018-04-08T10:35:59.049Z,95862.20
2018-04-08T10:38:26.709Z,95852.33
2018-04-08T10:40:54.293Z,95856.14
2018-04-08T10:43:21.837Z,95852.59
2018-04-08T10:45:49.368Z,95851.68
2018-04-08T10:48:17.006Z,95847.03
2018-04-08T10:50:44.546Z,95847.34
2018-04-08T10:53:12.097Z,95839.90
2018-04-08T10:55:39.605Z,95837.59
2018-04-08T10:58:07.124Z,95844.58
2018-04-08T11:00:34.685Z,95827.20
2018-04-08T11:03:02.243Z,95818.10
2018-04-08T11:05:29.765Z,95820.78
2018-04-08T11:07:57.273Z,95811.20
2018-04-08T11:10:24.772Z,95817.16
2018-04-08T11:12:52.337Z,95814.16
2018-04-08T11:15:19.848Z,95811.88
2018-04-08T11:17:47.397Z,95809.02
2018-04-08T11:20:14.909Z,95803.77
2018-04-08T11:22:42.417Z,95802.13
2018-04-08T11:25:09.934Z,95799.03
2018-04-08T11:27:37.489Z,95794.83
2018-04-08T11:30:05.584Z,95797.80
2018-04-08T11:32:33.137Z,95790.38
2018-04-08T11:35:00.687Z,95784.33
2018-04-08T11:37:28.187Z,95785.28
2018-04-08T11:39:55.806Z,95787.89
2018-04-08T11:42:23.313Z,95787.45
2018-04-08T11:44:50.863Z,95783.33
2018-04-08T11:47:18.418Z,95784.86
2018-04-08T11:49:45.974Z,95782.15
2018-04-08T11:52:13.482Z,95781.90
2018-04-08T11:54:40.987Z,95771.00
2018-04-08T11:57:08.539Z,95765.81
2018-04-08T11:59:36.080Z,95773.35
2018-04-08T12:02:03.699Z,95763.97
2018-04-08T12:04:31.180Z,95759.59
2018-04-08T12:06:58.676Z,95759.41
2018-04-08T12:09:26.181Z,95758.92
2018-04-08T12:11:53.684Z,95743.05
2018-04-08T12:14:21.194Z,95760.50
2018-04-08T12:16:48.753Z,95748.55
2018-04-08T12:19:16.261Z,95757.92
2018-04-08T12:21:43.774Z,95744.80
2018-04-08T12:24:11.272Z,95734.06
2018-04-08T12:26:38.825Z,95744.80
2018-04-08T12:29:06.384Z,95730.56
2018-04-08T12:31:33.904Z,95728.20
2018-04-08T12:34:01.436Z,95735.27
2018-04-08T12:36:29.003Z,95726.30
2018-04-08T12:38:56.518Z,95722.70
2018-04-08T12:41:25.012Z,95725.46
2018-04-08T12:43:52.529Z,95719.23
2018-04-08T12:46:20.033Z,95722.10
2018-04-08T12:48:47.569Z,95717.09
2018-04-08T12:51:15.069Z,95706.42
2018-04-08T12:53:42.575Z,95705.58
2018-04-08T12:56:10.078Z,95707.50
2018-04-08T12:58:37.625Z,95701.62
2018-04-08T13:01:05.124Z,95705.49
2018-04-08T13:03:32.677Z,95699.41
2018-04-08T13:06:00.185Z,95698.59
2018-04-08T13:08:27.734Z,95697.45
2018-04-08T13:10:55.234Z,95682.88
2018-04-08T13:13:22.740Z,95693.15
2018-04-08T13:15:50.256Z,95699.73
2018-04-08T13:18:17.760Z,95688.75
2018-04-08T13:20:45.315Z,95689.84
2018-04-08T13:23:12.816Z,95686.69
2018-04-08T13:25:40.321Z,95674.24
2018-04-08T13:28:07.852Z,95677.13
2018-04-08T13:30:35.346Z,95686.13
2018-04-08T13:33:02.848Z,95682.98
2018-04-08T13:35:30.418Z,95686.21
2018-04-08T13:37:57.916Z,95683.32
2018-04-08T13:40:25.425Z,95681.61
2018-04-08T13:42:52.925Z,95678.61
2018-04-08T13:45:21.185Z,95679.13
2018-04-08T13:47:48.692Z,95679.61
2018-04-08T13:50:16.228Z,95683.24
2018-04-08T13:52:43.735Z,95682.08
2018-04-08T13:55:11.279Z,95683.94
2018-04-08T13:57:38.793Z,95679.09
2018-04-08T14:00:06.363Z,95670.09
2018-04-08T14:02:33.914Z,95671.77
2018-04-08T14:05:01.458Z,95677.00
2018-04-08T14:07:28.963Z,95674.83
2018-04-08T14:09:56.471Z,95672.73
2018-04-08T14:12:23.978Z,95677.81
2018-04-08T14:14:51.530Z,95674.91
2018-04-08T14:17:19.078Z,95670.22
2018-04-08T14:19:46.590Z,95662.59
2018-04-08T14:22:14.097Z,95668.83
2018-04-08T14:24:41.647Z,95667.84
2018-04-08T14:27:09.152Z,95662.05
2018-04-08T14:29:36.713Z,95664.40
2018-04-08T14:32:04.225Z,95665.78
2018-04-08T14:34:31.803Z,95680.48
2018-04-08T14:36:59.309Z,95669.68
2018-04-08T14:39:26.811Z,95663.03
2018-04-08T14:41:54.341Z,95672.87
2018-04-08T14:44:21.851Z,95660.95
2018-04-08T14:46:49.352Z,95667.42
2018-04-08T14:49:16.898Z,95663.11
2018-04-08T14:51:44.401Z,95662.33
2018-04-08T14:54:11.961Z,95668.59
2018-04-08T14:56:39.482Z,95670.16
2018-04-08T14:59:07.001Z,95656.82
2018-04-08T15:01:34.556Z,95667.39
2018-04-08T15:04:02.067Z,95669.98
2018-04-08T15:06:29.623Z,95668.61
2018-04-08T15:08:57.152Z,95669.97
2018-04-08T15:11:24.697Z,95678.98
2018-04-08T15:13:52.208Z,95670.57
2018-04-08T15:16:19.765Z,95666.23
2018-04-08T15:18:47.281Z,95666.81
2018-04-08T15:21:14.823Z,95662.92
2018-04-08T15:23:42.327Z,95661.33
2018-04-08T15:26:09.824Z,95658.13
2018-04-08T15:28:37.357Z,95665.61
2018-04-08T15:31:04.904Z,95651.71
2018-04-08T15:33:32.423Z,95677.00
2018-04-08T15:36:00.007Z,95665.99
2018-04-08T15:38:27.524Z,95668.81
2018-04-08T15:40:55.085Z,95669.20
2018-04-08T15:43:22.588Z,95668.58
2018-04-08T15:45:50.142Z,95671.37
2018-04-08T15:48:17.653Z,95672.87
2018-04-08T15:50:45.209Z,95663.40
2018-04-08T15:53:12.799Z,95677.92
2018-04-08T15:55:40.358Z,95675.55
2018-04-08T15:58:07.872Z,95676.95
2018-04-08T16:00:35.405Z,95678.11
2018-04-08T16:03:02.960Z,95681.61
2018-04-08T16:05:30.529Z,95681.97
2018-04-08T16:07:58.033Z,95678.44
2018-04-08T16:10:25.549Z,95685.14
2018-04-08T16:12:53.099Z,95683.20
2018-04-08T16:15:20.629Z,95679.30
2018-04-08T16:17:48.133Z,95696.14
2018-04-08T16:20:15.644Z,95679.53
2018-04-08T16:22:43.146Z,95678.91
2018-04-08T16:25:10.646Z,95681.37
2018-04-08T16:27:38.231Z,95684.23
2018-04-08T16:30:05.756Z,95691.19
2018-04-08T16:32:33.271Z,95681.91
2018-04-08T16:35:00.814Z,95692.55
2018-04-08T16:37:28.330Z,95695.70
2018-04-08T16:39:55.820Z,95695.02
2018-04-08T16:42:23.403Z,95690.36
2018-04-08T16:44:50.941Z,95692.45
2018-04-08T16:47:18.444Z,95691.33
2018-04-08T16:49:45.953Z,95694.23
2018-04-08T16:52:13.501Z,95697.06
2018-04-08T16:54:40.998Z,95689.98
2018-04-08T16:57:08.512Z,95696.67
2018-04-08T16:59:36.026Z,95695.58
2018-04-08T17:02:03.573Z,95698.22
2018-04-08T17:04:31.111Z,95693.41
2018-04-08T17:06:58.631Z,95690.61
2018-04-08T17:09:26.211Z,95695.99
2018-04-08T17:11:53.685Z,95713.67
2018-04-08T17:14:21.244Z,95709.18
2018-04-08T17:16:48.753Z,95711.66
2018-04-08T17:19:16.316Z,95719.77
2018-04-08T17:21:43.865Z,95723.83
2018-04-08T17:24:11.378Z,95718.14
2018-04-08T17:26:38.887Z,95719.55
2018-04-08T17:29:06.409Z,95723.47
2018-04-08T17:31:34.738Z,95711.53
2018-04-08T17:34:02.259Z,95720.72
2018-04-08T17:36:29.775Z,95734.64
2018-04-08T17:38:57.281Z,95736.35
2018-04-08T17:41:24.804Z,95733.55
2018-04-08T17:43:52.358Z,95744.95
2018-04-08T17:46:19.879Z,95731.09
2018-04-08T17:48:47.410Z,95748.67
2018-04-08T17:51:14.919Z,95745.16
2018-04-08T17:53:42.425Z,95749.41
2018-04-08T17:56:09.939Z,95760.20
2018-04-08T17:58:37.457Z,95764.19
2018-04-08T18:01:05.049Z,95765.44
2018-04-08T18:03:32.589Z,95766.84
2018-04-08T18:06:00.536Z,95762.34
2018-04-08T18:08:28.050Z,95773.69
2018-04-08T18:10:55.612Z,95771.65
2018-04-08T18:13:23.145Z,95771.27
2018-04-08T18:15:50.660Z,95773.14
2018-04-08T18:18:18.173Z,95779.27
2018-04-08T18:20:45.741Z,95783.72
2018-04-08T18:23:13.253Z,95787.41
2018-04-08T18:25:40.781Z,95786.59
2018-04-08T18:28:08.300Z,95779.73
2018-04-08T18:30:35.856Z,95788.35
2018-04-08T18:33:03.378Z,95787.53
2018-04-08T18:35:31.719Z,95789.83
2018-04-08T18:37:59.284Z,95790.77
2018-04-08T18:40:26.801Z,95784.89
2018-04-08T18:42:54.360Z,95796.55
2018-04-08T18:45:21.923Z,95795.04
2018-04-08T18:47:49.432Z,95795.02
2018-04-08T18:50:16.988Z,95791.41
2018-04-08T18:52:44.539Z,95794.69
2018-04-08T18:55:12.045Z,95791.92
2018-04-08T18:57:39.595Z,95792.91
2018-04-08T19:00:07.131Z,95791.28
2018-04-08T19:02:34.677Z,95789.06
2018-04-08T19:05:02.209Z,95790.34
2018-04-08T19:07:29.778Z,95788.00
2018-04-08T19:09:57.280Z,95785.93
2018-04-08T19:12:24.854Z,95787.02
2018-04-08T19:14:57.861Z,95791.36
2018-04-08T19:17:31.021Z,95784.41
2018-04-08T19:19:58.523Z,95786.70
2018-04-08T19:22:26.025Z,95785.40
2018-04-08T19:24:53.537Z,95785.36
2018-04-08T19:27:39.621Z,95765.49
2018-04-08T19:30:15.241Z,95779.13
2018-04-08T19:32:42.747Z,95781.45
2018-04-08T19:35:10.576Z,95788.69
2018-04-08T19:37:38.083Z,95784.20
2018-04-08T19:40:05.594Z,95779.66
2018-04-08T19:42:33.160Z,95778.53
2018-04-08T19:45:00.694Z,95780.45
2018-04-08T19:47:28.257Z,95772.56
2018-04-08T19:49:55.766Z,95777.38
2018-04-08T19:52:23.272Z,95773.88
2018-04-08T19:54:50.883Z,95781.52
2018-04-08T19:57:18.390Z,95790.63
2018-04-08T19:59:45.946Z,95780.00
2018-04-08T20:02:13.459Z,95802.23
2018-04-08T20:04:41.023Z,95795.73
2018-04-08T20:07:08.540Z,95790.77
2018-04-08T20:09:36.052Z,95796.91
2018-04-08T20:12:03.562Z,95799.64
2018-04-08T20:14:31.115Z,95803.97
2018-04-08T20:16:58.617Z,95794.13
2018-04-08T20:19:26.170Z,95790.41
2018-04-08T20:21:53.687Z,95791.94
2018-04-08T20:24:21.227Z,95793.84
2018-04-08T20:26:48.786Z,95795.81
2018-04-08T20:29:16.333Z,95799.09
2018-04-08T20:31:43.837Z,95800.02
2018-04-08T20:34:11.342Z,95796.78
2018-04-08T20:36:38.853Z,95794.75
2018-04-08T20:39:06.400Z,95800.09
2018-04-08T20:41:33.910Z,95791.09
2018-04-08T20:44:01.409Z,95800.67
2018-04-08T20:46:28.960Z,95797.00
2018-04-08T20:48:56.496Z,95796.73
2018-04-08T20:51:24.042Z,95791.38
2018-04-08T20:53:51.540Z,95793.70
2018-04-08T20:56:19.054Z,95801.41
2018-04-08T20:58:46.584Z,95801.97
2018-04-08T21:01:14.124Z,95804.69
2018-04-08T21:03:41.634Z,95793.42
2018-04-08T21:06:09.196Z,95753.19
2018-04-08T21:08:36.700Z,95800.74
2018-04-08T21:11:04.288Z,95797.91
2018-04-08T21:13:31.812Z,95795.75
2018-04-08T21:15:59.399Z,95796.27
2018-04-08T21:18:26.914Z,95795.59
2018-04-08T21:20:54.467Z,95795.30
2018-04-08T21:23:21.985Z,95798.37
2018-04-08T21:25:49.537Z,95793.89
2018-04-08T21:28:17.080Z,95788.87
2018-04-08T21:30:44.648Z,95803.84
2018-04-08T21:33:12.230Z,95785.70
2018-04-08T21:35:39.773Z,95789.25
2018-04-08T21:38:07.269Z,95801.78
2018-04-08T21:40:34.800Z,95794.89
2018-04-08T21:43:02.329Z,95809.03
2018-04-08T21:45:29.840Z,95799.81
2018-04-08T21:47:57.372Z,95804.20
2018-04-08T21:50:24.881Z,95808.50
2018-04-08T21:52:52.423Z,95815.47
2018-04-08T21:55:21.719Z,95804.94
2018-04-08T21:57:49.289Z,95809.91
2018-04-08T22:00:16.825Z,95803.91
2018-04-08T22:02:44.326Z,95800.05
2018-04-08T22:05:11.865Z,95807.84
2018-04-08T22:07:39.385Z,95804.07
2018-04-08T22:10:06.886Z,95803.81
2018-04-08T22:12:34.439Z,95802.66
2018-04-08T22:15:01.948Z,95804.56
2018-04-08T22:17:29.452Z,95790.27
2018-04-08T22:19:56.979Z,95792.23
2018-04-08T22:22:24.487Z,95789.23
2018-04-08T22:24:51.995Z,95778.20
2018-04-08T22:27:19.509Z,95791.08
2018-04-08T22:29:47.056Z,95783.97
2018-04-08T22:32:14.553Z,95783.11
2018-04-08T22:34:42.069Z,95777.30
2018-04-08T22:37:09.588Z,95781.66
2018-04-08T22:39:37.148Z,95781.05
2018-04-08T22:42:04.696Z,95776.48
2018-04-08T22:44:32.192Z,95768.16
2018-04-08T22:46:59.702Z,95771.73
2018-04-08T22:49:27.205Z,95767.12
2018-04-08T22:51:54.717Z,95772.98
2018-04-08T22:54:22.227Z,95769.32
2018-04-08T22:56:49.721Z,95760.88
2018-04-08T22:59:17.230Z,95760.05
2018-04-08T23:01:44.776Z,95756.44
2018-04-08T23:04:12.274Z,95730.13
2018-04-08T23:06:39.784Z,95760.31
2018-04-08T23:09:07.329Z,95753.70
2018-04-08T23:11:34.842Z,95753.29
2018-04-08T23:14:02.353Z,95773.23
2018-04-08T23:16:29.909Z,95764.22
2018-04-08T23:18:57.412Z,95752.35
2018-04-08T23:21:24.908Z,95755.81
2018-04-08T23:23:52.418Z,95750.14
2018-04-08T23:26:19.958Z,95746.72
2018-04-08T23:28:47.520Z,95765.13
2018-04-08T23:31:15.058Z,95758.74
2018-04-08T23:33:43.436Z,95764.01
2018-04-08T23:36:10.974Z,95751.41
2018-04-08T23:38:38.478Z,95752.11
2018-04-08T23:41:06.018Z,95755.77
2018-04-08T23:43:33.521Z,95750.77
2018-04-08T23:46:01.017Z,95748.80
2018-04-08T23:48:28.516Z,95748.81
2018-04-08T23:50:56.028Z,95742.28
2018-04-08T23:53:23.557Z,95751.80
2018-04-08T23:55:51.075Z,95748.81
2018-04-08T23:58:18.618Z,95744.41
